sensor_id;sensor_type;location;lat;lon;timestamp;P1;durP1;ratioP1;P2;durP2;ratioP2
16314;SDS011;8266;52.150;4.768;2023-01-16T00:01:41;5.28;;;4.88;;
16314;SDS011;8266;52.150;4.768;2023-01-16T00:04:08;6.05;;;5.40;;
16314;SDS011;8266;52.150;4.768;2023-01-16T00:06:35;5.60;;;5.10;;
16314;SDS011;8266;52.150;4.768;2023-01-16T00:09:04;5.43;;;4.93;;
16314;SDS011;8266;52.150;4.768;2023-01-16T00:11:31;5.50;;;4.97;;
16314;SDS011;8266;52.150;4.768;2023-01-16T00:13:58;5.13;;;4.68;;
16314;SDS011;8266;52.150;4.768;2023-01-16T00:16:25;5.45;;;4.95;;
16314;SDS011;8266;52.150;4.768;2023-01-16T00:18:53;5.35;;;4.88;;
16314;SDS011;8266;52.150;4.768;2023-01-16T00:21:20;5.13;;;4.70;;
16314;SDS011;8266;52.150;4.768;2023-01-16T00:23:50;4.75;;;4.35;;
16314;SDS011;8266;52.150;4.768;2023-01-16T00:26:19;5.90;;;4.43;;
16314;SDS011;8266;52.150;4.768;2023-01-16T00:28:46;4.63;;;4.22;;
16314;SDS011;8266;52.150;4.768;2023-01-16T00:31:13;5.28;;;4.70;;
16314;SDS011;8266;52.150;4.768;2023-01-16T00:33:40;4.70;;;4.30;;
16314;SDS011;8266;52.150;4.768;2023-01-16T00:36:08;4.65;;;4.25;;
16314;SDS011;8266;52.150;4.768;2023-01-16T00:38:35;5.00;;;4.22;;
16314;SDS011;8266;52.150;4.768;2023-01-16T00:41:03;4.38;;;3.97;;
16314;SDS011;8266;52.150;4.768;2023-01-16T00:43:31;4.82;;;4.13;;
16314;SDS011;8266;52.150;4.768;2023-01-16T00:45:58;4.03;;;3.65;;
16314;SDS011;8266;52.150;4.768;2023-01-16T00:48:25;3.92;;;3.55;;
16314;SDS011;8266;52.150;4.768;2023-01-16T00:50:52;4.00;;;3.70;;
16314;SDS011;8266;52.150;4.768;2023-01-16T00:53:19;3.40;;;3.10;;
16314;SDS011;8266;52.150;4.768;2023-01-16T00:55:47;3.42;;;2.83;;
16314;SDS011;8266;52.150;4.768;2023-01-16T00:58:16;4.00;;;2.70;;
16314;SDS011;8266;52.150;4.768;2023-01-16T01:00:44;3.03;;;2.33;;
16314;SDS011;8266;52.150;4.768;2023-01-16T01:03:11;2.63;;;2.22;;
16314;SDS011;8266;52.150;4.768;2023-01-16T01:05:38;4.88;;;2.58;;
16314;SDS011;8266;52.150;4.768;2023-01-16T01:08:05;4.45;;;2.20;;
16314;SDS011;8266;52.150;4.768;2023-01-16T01:10:32;3.25;;;2.25;;
16314;SDS011;8266;52.150;4.768;2023-01-16T01:13:02;2.80;;;2.55;;
16314;SDS011;8266;52.150;4.768;2023-01-16T01:15:29;3.15;;;2.75;;
16314;SDS011;8266;52.150;4.768;2023-01-16T01:17:58;6.03;;;3.33;;
16314;SDS011;8266;52.150;4.768;2023-01-16T01:20:25;5.15;;;3.05;;
16314;SDS011;8266;52.150;4.768;2023-01-16T01:22:52;5.63;;;3.72;;
16314;SDS011;8266;52.150;4.768;2023-01-16T01:25:19;7.30;;;3.85;;
16314;SDS011;8266;52.150;4.768;2023-01-16T01:27:46;6.65;;;3.78;;
16314;SDS011;8266;52.150;4.768;2023-01-16T01:30:13;7.22;;;4.22;;
16314;SDS011;8266;52.150;4.768;2023-01-16T01:32:40;6.53;;;3.90;;
16314;SDS011;8266;52.150;4.768;2023-01-16T01:35:09;6.65;;;4.57;;
16314;SDS011;8266;52.150;4.768;2023-01-16T01:37:36;6.25;;;4.13;;
16314;SDS011;8266;52.150;4.768;2023-01-16T01:40:03;6.50;;;4.10;;
16314;SDS011;8266;52.150;4.768;2023-01-16T01:42:35;6.20;;;3.63;;
16314;SDS011;8266;52.150;4.768;2023-01-16T01:45:12;8.18;;;4.50;;
16314;SDS011;8266;52.150;4.768;2023-01-16T01:47:44;5.18;;;3.95;;
16314;SDS011;8266;52.150;4.768;2023-01-16T01:50:19;5.82;;;4.28;;
16314;SDS011;8266;52.150;4.768;2023-01-16T01:52:52;6.90;;;4.18;;
16314;SDS011;8266;52.150;4.768;2023-01-16T01:55:23;5.75;;;4.05;;
16314;SDS011;8266;52.150;4.768;2023-01-16T01:57:51;7.72;;;3.90;;
16314;SDS011;8266;52.150;4.768;2023-01-16T02:00:23;10.25;;;4.82;;
16314;SDS011;8266;52.150;4.768;2023-01-16T02:02:53;5.05;;;4.50;;
16314;SDS011;8266;52.150;4.768;2023-01-16T02:05:36;8.30;;;4.80;;
16314;SDS011;8266;52.150;4.768;2023-01-16T02:08:10;4.72;;;3.80;;
16314;SDS011;8266;52.150;4.768;2023-01-16T02:10:39;4.43;;;4.00;;
16314;SDS011;8266;52.150;4.768;2023-01-16T02:13:11;5.53;;;3.88;;
16314;SDS011;8266;52.150;4.768;2023-01-16T02:15:38;5.95;;;3.95;;
16314;SDS011;8266;52.150;4.768;2023-01-16T02:18:26;5.70;;;3.80;;
16314;SDS011;8266;52.150;4.768;2023-01-16T02:21:13;6.07;;;4.40;;
16314;SDS011;8266;52.150;4.768;2023-01-16T02:24:13;4.05;;;3.20;;
16314;SDS011;8266;52.150;4.768;2023-01-16T02:27:08;3.72;;;3.08;;
16314;SDS011;8266;52.150;4.768;2023-01-16T02:29:53;6.15;;;3.15;;
16314;SDS011;8266;52.150;4.768;2023-01-16T02:35:34;4.97;;;2.85;;
16314;SDS011;8266;52.150;4.768;2023-01-16T02:38:17;5.65;;;2.58;;
16314;SDS011;8266;52.150;4.768;2023-01-16T02:40:48;7.45;;;2.30;;
16314;SDS011;8266;52.150;4.768;2023-01-16T02:43:27;4.47;;;2.33;;
16314;SDS011;8266;52.150;4.768;2023-01-16T02:46:02;5.15;;;2.70;;
16314;SDS011;8266;52.150;4.768;2023-01-16T02:48:37;4.30;;;2.67;;
16314;SDS011;8266;52.150;4.768;2023-01-16T02:51:11;3.33;;;2.58;;
16314;SDS011;8266;52.150;4.768;2023-01-16T02:53:44;5.15;;;2.78;;
16314;SDS011;8266;52.150;4.768;2023-01-16T02:56:17;6.85;;;3.50;;
16314;SDS011;8266;52.150;4.768;2023-01-16T02:58:48;8.00;;;3.50;;
16314;SDS011;8266;52.150;4.768;2023-01-16T03:01:17;7.07;;;4.10;;
16314;SDS011;8266;52.150;4.768;2023-01-16T03:03:49;6.60;;;4.15;;
16314;SDS011;8266;52.150;4.768;2023-01-16T03:06:24;7.90;;;4.20;;
16314;SDS011;8266;52.150;4.768;2023-01-16T03:09:09;6.97;;;4.60;;
16314;SDS011;8266;52.150;4.768;2023-01-16T03:11:52;7.70;;;4.47;;
16314;SDS011;8266;52.150;4.768;2023-01-16T03:14:33;6.97;;;4.53;;
16314;SDS011;8266;52.150;4.768;2023-01-16T03:17:07;6.05;;;4.22;;
16314;SDS011;8266;52.150;4.768;2023-01-16T03:19:47;4.40;;;3.70;;
16314;SDS011;8266;52.150;4.768;2023-01-16T03:22:24;7.72;;;4.18;;
16314;SDS011;8266;52.150;4.768;2023-01-16T03:25:03;7.65;;;4.15;;
16314;SDS011;8266;52.150;4.768;2023-01-16T03:27:44;5.65;;;3.50;;
16314;SDS011;8266;52.150;4.768;2023-01-16T03:30:22;5.00;;;3.67;;
16314;SDS011;8266;52.150;4.768;2023-01-16T03:32:56;4.93;;;3.80;;
16314;SDS011;8266;52.150;4.768;2023-01-16T03:35:28;4.05;;;3.35;;
16314;SDS011;8266;52.150;4.768;2023-01-16T03:37:58;8.40;;;3.67;;
16314;SDS011;8266;52.150;4.768;2023-01-16T03:40:29;4.05;;;2.70;;
16314;SDS011;8266;52.150;4.768;2023-01-16T03:43:01;4.68;;;2.83;;
16314;SDS011;8266;52.150;4.768;2023-01-16T03:45:33;4.85;;;2.95;;
16314;SDS011;8266;52.150;4.768;2023-01-16T03:48:06;5.80;;;2.85;;
16314;SDS011;8266;52.150;4.768;2023-01-16T03:50:38;5.70;;;2.55;;
16314;SDS011;8266;52.150;4.768;2023-01-16T03:53:11;4.22;;;2.20;;
16314;SDS011;8266;52.150;4.768;2023-01-16T03:55:41;3.83;;;1.95;;
16314;SDS011;8266;52.150;4.768;2023-01-16T03:58:13;2.78;;;1.77;;
16314;SDS011;8266;52.150;4.768;2023-01-16T04:00:46;3.90;;;1.90;;
16314;SDS011;8266;52.150;4.768;2023-01-16T04:03:17;5.25;;;1.98;;
16314;SDS011;8266;52.150;4.768;2023-01-16T04:05:52;2.88;;;1.40;;
16314;SDS011;8266;52.150;4.768;2023-01-16T04:08:25;4.53;;;2.25;;
16314;SDS011;8266;52.150;4.768;2023-01-16T04:10:57;2.72;;;1.50;;
16314;SDS011;8266;52.150;4.768;2023-01-16T04:13:27;3.10;;;1.60;;
16314;SDS011;8266;52.150;4.768;2023-01-16T04:15:58;4.30;;;2.13;;
16314;SDS011;8266;52.150;4.768;2023-01-16T04:18:29;2.88;;;1.65;;
16314;SDS011;8266;52.150;4.768;2023-01-16T04:21:00;3.40;;;1.83;;
16314;SDS011;8266;52.150;4.768;2023-01-16T04:23:29;3.50;;;1.73;;
16314;SDS011;8266;52.150;4.768;2023-01-16T04:25:56;3.30;;;1.52;;
16314;SDS011;8266;52.150;4.768;2023-01-16T04:28:23;3.35;;;1.40;;
16314;SDS011;8266;52.150;4.768;2023-01-16T04:30:50;5.28;;;1.60;;
16314;SDS011;8266;52.150;4.768;2023-01-16T04:33:16;7.05;;;1.85;;
16314;SDS011;8266;52.150;4.768;2023-01-16T04:35:43;3.33;;;1.30;;
16314;SDS011;8266;52.150;4.768;2023-01-16T04:38:12;2.67;;;1.30;;
16314;SDS011;8266;52.150;4.768;2023-01-16T04:40:39;3.53;;;1.50;;
16314;SDS011;8266;52.150;4.768;2023-01-16T04:43:06;3.90;;;1.42;;
16314;SDS011;8266;52.150;4.768;2023-01-16T04:45:33;3.08;;;1.20;;
16314;SDS011;8266;52.150;4.768;2023-01-16T04:48:00;3.67;;;1.33;;
16314;SDS011;8266;52.150;4.768;2023-01-16T04:50:26;3.80;;;1.20;;
16314;SDS011;8266;52.150;4.768;2023-01-16T04:52:53;3.65;;;1.67;;
16314;SDS011;8266;52.150;4.768;2023-01-16T04:55:22;2.33;;;1.27;;
16314;SDS011;8266;52.150;4.768;2023-01-16T04:57:49;2.75;;;1.52;;
16314;SDS011;8266;52.150;4.768;2023-01-16T05:00:16;3.97;;;1.15;;
16314;SDS011;8266;52.150;4.768;2023-01-16T05:02:44;2.38;;;1.20;;
16314;SDS011;8266;52.150;4.768;2023-01-16T05:05:11;4.43;;;1.70;;
16314;SDS011;8266;52.150;4.768;2023-01-16T05:07:38;2.08;;;1.00;;
16314;SDS011;8266;52.150;4.768;2023-01-16T05:10:05;3.53;;;1.67;;
16314;SDS011;8266;52.150;4.768;2023-01-16T05:12:34;3.95;;;1.35;;
16314;SDS011;8266;52.150;4.768;2023-01-16T05:15:01;3.05;;;1.50;;
16314;SDS011;8266;52.150;4.768;2023-01-16T05:17:28;3.33;;;1.60;;
16314;SDS011;8266;52.150;4.768;2023-01-16T05:19:55;4.32;;;1.90;;
16314;SDS011;8266;52.150;4.768;2023-01-16T05:22:22;5.10;;;2.10;;
16314;SDS011;8266;52.150;4.768;2023-01-16T05:24:49;1.88;;;1.60;;
16314;SDS011;8266;52.150;4.768;2023-01-16T05:27:16;3.72;;;1.40;;
16314;SDS011;8266;52.150;4.768;2023-01-16T05:29:44;4.57;;;1.75;;
16314;SDS011;8266;52.150;4.768;2023-01-16T05:32:11;6.15;;;2.08;;
16314;SDS011;8266;52.150;4.768;2023-01-16T05:34:38;2.40;;;1.40;;
16314;SDS011;8266;52.150;4.768;2023-01-16T05:37:05;2.85;;;1.38;;
16314;SDS011;8266;52.150;4.768;2023-01-16T05:39:32;2.70;;;1.30;;
16314;SDS011;8266;52.150;4.768;2023-01-16T05:41:59;3.35;;;1.30;;
16314;SDS011;8266;52.150;4.768;2023-01-16T05:44:26;5.32;;;1.52;;
16314;SDS011;8266;52.150;4.768;2023-01-16T05:46:54;5.63;;;2.00;;
16314;SDS011;8266;52.150;4.768;2023-01-16T05:49:21;2.50;;;1.05;;
16314;SDS011;8266;52.150;4.768;2023-01-16T05:51:48;3.13;;;1.20;;
16314;SDS011;8266;52.150;4.768;2023-01-16T05:54:15;4.40;;;1.33;;
16314;SDS011;8266;52.150;4.768;2023-01-16T05:56:42;3.08;;;1.67;;
16314;SDS011;8266;52.150;4.768;2023-01-16T05:59:09;3.00;;;1.40;;
16314;SDS011;8266;52.150;4.768;2023-01-16T06:01:36;4.68;;;1.38;;
16314;SDS011;8266;52.150;4.768;2023-01-16T06:04:04;2.40;;;1.00;;
16314;SDS011;8266;52.150;4.768;2023-01-16T06:06:31;4.80;;;1.30;;
16314;SDS011;8266;52.150;4.768;2023-01-16T06:08:58;2.95;;;1.60;;
16314;SDS011;8266;52.150;4.768;2023-01-16T06:11:25;3.30;;;1.40;;
16314;SDS011;8266;52.150;4.768;2023-01-16T06:13:52;4.10;;;1.30;;
16314;SDS011;8266;52.150;4.768;2023-01-16T06:16:19;6.22;;;1.52;;
16314;SDS011;8266;52.150;4.768;2023-01-16T06:18:48;3.33;;;1.52;;
16314;SDS011;8266;52.150;4.768;2023-01-16T06:21:16;3.38;;;1.20;;
16314;SDS011;8266;52.150;4.768;2023-01-16T06:23:43;2.97;;;1.45;;
16314;SDS011;8266;52.150;4.768;2023-01-16T06:26:10;6.05;;;1.50;;
16314;SDS011;8266;52.150;4.768;2023-01-16T06:28:37;2.75;;;1.10;;
16314;SDS011;8266;52.150;4.768;2023-01-16T06:31:07;3.70;;;1.33;;
16314;SDS011;8266;52.150;4.768;2023-01-16T06:33:35;3.53;;;1.42;;
16314;SDS011;8266;52.150;4.768;2023-01-16T06:36:02;4.63;;;1.13;;
16314;SDS011;8266;52.150;4.768;2023-01-16T06:38:30;4.25;;;1.80;;
16314;SDS011;8266;52.150;4.768;2023-01-16T06:40:57;4.78;;;1.25;;
16314;SDS011;8266;52.150;4.768;2023-01-16T06:43:25;4.22;;;1.40;;
16314;SDS011;8266;52.150;4.768;2023-01-16T06:45:52;5.78;;;1.10;;
16314;SDS011;8266;52.150;4.768;2023-01-16T06:48:20;3.17;;;1.23;;
16314;SDS011;8266;52.150;4.768;2023-01-16T06:50:47;2.97;;;1.50;;
16314;SDS011;8266;52.150;4.768;2023-01-16T06:53:14;3.60;;;1.27;;
16314;SDS011;8266;52.150;4.768;2023-01-16T06:55:43;5.28;;;1.73;;
16314;SDS011;8266;52.150;4.768;2023-01-16T06:58:10;3.30;;;1.42;;
16314;SDS011;8266;52.150;4.768;2023-01-16T07:00:38;3.15;;;1.33;;
16314;SDS011;8266;52.150;4.768;2023-01-16T07:03:06;2.90;;;1.20;;
16314;SDS011;8266;52.150;4.768;2023-01-16T07:05:33;5.72;;;1.30;;
16314;SDS011;8266;52.150;4.768;2023-01-16T07:08:00;3.28;;;1.40;;
16314;SDS011;8266;52.150;4.768;2023-01-16T07:10:27;5.60;;;1.60;;
16314;SDS011;8266;52.150;4.768;2023-01-16T07:12:56;9.25;;;1.63;;
16314;SDS011;8266;52.150;4.768;2023-01-16T07:15:23;3.65;;;1.35;;
16314;SDS011;8266;52.150;4.768;2023-01-16T07:18:08;4.25;;;1.40;;
16314;SDS011;8266;52.150;4.768;2023-01-16T07:20:56;2.47;;;1.20;;
16314;SDS011;8266;52.150;4.768;2023-01-16T07:23:44;3.97;;;1.30;;
16314;SDS011;8266;52.150;4.768;2023-01-16T07:26:15;2.30;;;1.17;;
16314;SDS011;8266;52.150;4.768;2023-01-16T07:28:46;8.27;;;1.40;;
16314;SDS011;8266;52.150;4.768;2023-01-16T07:31:14;3.53;;;1.52;;
16314;SDS011;8266;52.150;4.768;2023-01-16T07:33:42;3.97;;;1.60;;
16314;SDS011;8266;52.150;4.768;2023-01-16T07:36:09;3.20;;;1.30;;
16314;SDS011;8266;52.150;4.768;2023-01-16T07:38:36;2.65;;;1.30;;
16314;SDS011;8266;52.150;4.768;2023-01-16T07:41:03;2.63;;;1.10;;
16314;SDS011;8266;52.150;4.768;2023-01-16T07:43:30;3.88;;;1.30;;
16314;SDS011;8266;52.150;4.768;2023-01-16T07:45:58;3.17;;;1.13;;
16314;SDS011;8266;52.150;4.768;2023-01-16T07:48:25;3.10;;;1.60;;
16314;SDS011;8266;52.150;4.768;2023-01-16T07:50:53;2.92;;;1.70;;
16314;SDS011;8266;52.150;4.768;2023-01-16T07:53:22;3.70;;;1.27;;
16314;SDS011;8266;52.150;4.768;2023-01-16T07:55:50;4.18;;;1.70;;
16314;SDS011;8266;52.150;4.768;2023-01-16T07:58:19;3.80;;;1.20;;
16314;SDS011;8266;52.150;4.768;2023-01-16T08:00:47;4.10;;;1.45;;
16314;SDS011;8266;52.150;4.768;2023-01-16T08:03:16;3.78;;;1.00;;
16314;SDS011;8266;52.150;4.768;2023-01-16T08:05:43;1.88;;;1.10;;
16314;SDS011;8266;52.150;4.768;2023-01-16T08:08:10;2.20;;;0.77;;
16314;SDS011;8266;52.150;4.768;2023-01-16T08:10:37;1.80;;;0.75;;
16314;SDS011;8266;52.150;4.768;2023-01-16T08:13:04;3.25;;;1.33;;
16314;SDS011;8266;52.150;4.768;2023-01-16T08:15:32;3.50;;;0.98;;
16314;SDS011;8266;52.150;4.768;2023-01-16T08:17:58;2.08;;;1.42;;
16314;SDS011;8266;52.150;4.768;2023-01-16T08:20:27;2.00;;;1.10;;
16314;SDS011;8266;52.150;4.768;2023-01-16T08:22:54;1.65;;;0.93;;
16314;SDS011;8266;52.150;4.768;2023-01-16T08:25:23;1.80;;;0.95;;
16314;SDS011;8266;52.150;4.768;2023-01-16T08:27:50;1.25;;;0.55;;
16314;SDS011;8266;52.150;4.768;2023-01-16T08:30:18;2.85;;;0.80;;
16314;SDS011;8266;52.150;4.768;2023-01-16T08:32:45;2.90;;;0.95;;
16314;SDS011;8266;52.150;4.768;2023-01-16T08:35:12;1.90;;;0.70;;
16314;SDS011;8266;52.150;4.768;2023-01-16T08:37:45;2.25;;;0.93;;
16314;SDS011;8266;52.150;4.768;2023-01-16T08:40:14;4.03;;;1.17;;
16314;SDS011;8266;52.150;4.768;2023-01-16T08:42:41;1.17;;;0.90;;
16314;SDS011;8266;52.150;4.768;2023-01-16T08:45:25;2.08;;;0.85;;
16314;SDS011;8266;52.150;4.768;2023-01-16T08:48:10;1.58;;;0.80;;
16314;SDS011;8266;52.150;4.768;2023-01-16T08:50:55;8.02;;;1.10;;
16314;SDS011;8266;52.150;4.768;2023-01-16T08:53:42;1.40;;;1.00;;
16314;SDS011;8266;52.150;4.768;2023-01-16T08:56:09;3.53;;;1.08;;
16314;SDS011;8266;52.150;4.768;2023-01-16T08:58:36;1.73;;;1.00;;
16314;SDS011;8266;52.150;4.768;2023-01-16T09:01:03;2.33;;;1.00;;
16314;SDS011;8266;52.150;4.768;2023-01-16T09:03:30;2.13;;;1.08;;
16314;SDS011;8266;52.150;4.768;2023-01-16T09:05:59;3.63;;;1.05;;
16314;SDS011;8266;52.150;4.768;2023-01-16T09:08:26;1.35;;;1.00;;
16314;SDS011;8266;52.150;4.768;2023-01-16T09:10:54;2.58;;;0.98;;
16314;SDS011;8266;52.150;4.768;2023-01-16T09:13:50;2.00;;;1.20;;
16314;SDS011;8266;52.150;4.768;2023-01-16T09:16:17;2.22;;;1.30;;
16314;SDS011;8266;52.150;4.768;2023-01-16T09:18:46;2.00;;;1.20;;
16314;SDS011;8266;52.150;4.768;2023-01-16T09:21:13;2.13;;;1.15;;
16314;SDS011;8266;52.150;4.768;2023-01-16T09:23:43;2.85;;;1.20;;
16314;SDS011;8266;52.150;4.768;2023-01-16T09:26:12;2.38;;;1.17;;
16314;SDS011;8266;52.150;4.768;2023-01-16T09:28:39;1.80;;;1.30;;
16314;SDS011;8266;52.150;4.768;2023-01-16T09:31:06;3.60;;;1.30;;
16314;SDS011;8266;52.150;4.768;2023-01-16T09:33:33;3.25;;;1.25;;
16314;SDS011;8266;52.150;4.768;2023-01-16T09:36:02;3.40;;;1.25;;
16314;SDS011;8266;52.150;4.768;2023-01-16T09:38:29;2.42;;;1.63;;
16314;SDS011;8266;52.150;4.768;2023-01-16T09:40:57;1.98;;;1.30;;
16314;SDS011;8266;52.150;4.768;2023-01-16T09:43:32;3.70;;;1.50;;
16314;SDS011;8266;52.150;4.768;2023-01-16T09:46:01;2.38;;;1.60;;
16314;SDS011;8266;52.150;4.768;2023-01-16T09:48:32;3.42;;;1.90;;
16314;SDS011;8266;52.150;4.768;2023-01-16T09:51:02;2.65;;;1.63;;
16314;SDS011;8266;52.150;4.768;2023-01-16T09:53:33;1.70;;;1.60;;
16314;SDS011;8266;52.150;4.768;2023-01-16T09:56:22;2.83;;;1.70;;
16314;SDS011;8266;52.150;4.768;2023-01-16T09:59:16;2.80;;;1.45;;
16314;SDS011;8266;52.150;4.768;2023-01-16T10:01:53;3.25;;;1.50;;
16314;SDS011;8266;52.150;4.768;2023-01-16T10:04:25;1.67;;;1.55;;
16314;SDS011;8266;52.150;4.768;2023-01-16T10:06:58;4.18;;;1.50;;
16314;SDS011;8266;52.150;4.768;2023-01-16T10:09:48;2.35;;;1.55;;
16314;SDS011;8266;52.150;4.768;2023-01-16T10:12:20;2.72;;;1.30;;
16314;SDS011;8266;52.150;4.768;2023-01-16T10:14:55;2.28;;;1.40;;
16314;SDS011;8266;52.150;4.768;2023-01-16T10:17:32;3.05;;;1.30;;
16314;SDS011;8266;52.150;4.768;2023-01-16T10:22:59;3.33;;;1.67;;
16314;SDS011;8266;52.150;4.768;2023-01-16T10:25:38;3.83;;;1.40;;
16314;SDS011;8266;52.150;4.768;2023-01-16T10:28:16;2.92;;;1.30;;
16314;SDS011;8266;52.150;4.768;2023-01-16T10:31:00;2.55;;;1.00;;
16314;SDS011;8266;52.150;4.768;2023-01-16T10:33:33;2.13;;;1.17;;
16314;SDS011;8266;52.150;4.768;2023-01-16T10:36:05;1.70;;;0.90;;
16314;SDS011;8266;52.150;4.768;2023-01-16T10:38:39;2.25;;;1.20;;
16314;SDS011;8266;52.150;4.768;2023-01-16T10:41:12;1.98;;;1.13;;
16314;SDS011;8266;52.150;4.768;2023-01-16T10:44:00;1.20;;;1.00;;
16314;SDS011;8266;52.150;4.768;2023-01-16T10:46:48;3.58;;;0.93;;
16314;SDS011;8266;52.150;4.768;2023-01-16T10:49:34;4.15;;;1.00;;
16314;SDS011;8266;52.150;4.768;2023-01-16T10:52:02;1.70;;;1.00;;
16314;SDS011;8266;52.150;4.768;2023-01-16T10:54:31;1.13;;;1.00;;
16314;SDS011;8266;52.150;4.768;2023-01-16T10:56:58;1.05;;;0.80;;
16314;SDS011;8266;52.150;4.768;2023-01-16T10:59:28;2.53;;;1.08;;
16314;SDS011;8266;52.150;4.768;2023-01-16T11:02:00;1.92;;;1.08;;
16314;SDS011;8266;52.150;4.768;2023-01-16T11:04:38;1.77;;;0.93;;
16314;SDS011;8266;52.150;4.768;2023-01-16T11:07:13;1.10;;;0.80;;
16314;SDS011;8266;52.150;4.768;2023-01-16T11:09:42;1.70;;;0.95;;
16314;SDS011;8266;52.150;4.768;2023-01-16T11:12:11;1.33;;;0.77;;
16314;SDS011;8266;52.150;4.768;2023-01-16T11:15:08;3.67;;;0.80;;
16314;SDS011;8266;52.150;4.768;2023-01-16T11:18:00;1.65;;;1.00;;
16314;SDS011;8266;52.150;4.768;2023-01-16T11:20:44;2.95;;;0.90;;
16314;SDS011;8266;52.150;4.768;2023-01-16T11:23:16;2.67;;;0.82;;
16314;SDS011;8266;52.150;4.768;2023-01-16T11:25:46;1.42;;;0.85;;
16314;SDS011;8266;52.150;4.768;2023-01-16T11:28:17;1.45;;;0.90;;
16314;SDS011;8266;52.150;4.768;2023-01-16T11:30:48;2.38;;;1.15;;
16314;SDS011;8266;52.150;4.768;2023-01-16T11:33:20;1.42;;;1.15;;
16314;SDS011;8266;52.150;4.768;2023-01-16T11:35:51;1.50;;;0.90;;
16314;SDS011;8266;52.150;4.768;2023-01-16T11:38:20;1.90;;;1.08;;
16314;SDS011;8266;52.150;4.768;2023-01-16T11:40:48;2.20;;;0.80;;
16314;SDS011;8266;52.150;4.768;2023-01-16T11:43:21;1.52;;;0.80;;
16314;SDS011;8266;52.150;4.768;2023-01-16T11:46:18;1.58;;;0.80;;
16314;SDS011;8266;52.150;4.768;2023-01-16T11:49:01;2.55;;;0.70;;
16314;SDS011;8266;52.150;4.768;2023-01-16T11:51:30;0.73;;;0.70;;
16314;SDS011;8266;52.150;4.768;2023-01-16T11:53:58;2.35;;;0.85;;
16314;SDS011;8266;52.150;4.768;2023-01-16T12:02:27;1.42;;;0.80;;
16314;SDS011;8266;52.150;4.768;2023-01-16T12:05:21;1.20;;;0.70;;
16314;SDS011;8266;52.150;4.768;2023-01-16T12:08:20;2.05;;;0.82;;
16314;SDS011;8266;52.150;4.768;2023-01-16T12:11:07;1.50;;;0.90;;
16314;SDS011;8266;52.150;4.768;2023-01-16T12:13:38;1.40;;;0.77;;
16314;SDS011;8266;52.150;4.768;2023-01-16T12:16:31;1.02;;;0.60;;
16314;SDS011;8266;52.150;4.768;2023-01-16T12:19:10;1.10;;;1.00;;
16314;SDS011;8266;52.150;4.768;2023-01-16T12:22:10;0.93;;;0.82;;
16314;SDS011;8266;52.150;4.768;2023-01-16T12:24:44;1.05;;;0.90;;
16314;SDS011;8266;52.150;4.768;2023-01-16T12:27:21;0.68;;;0.68;;
16314;SDS011;8266;52.150;4.768;2023-01-16T12:30:02;1.80;;;0.80;;
16314;SDS011;8266;52.150;4.768;2023-01-16T12:32:43;1.10;;;0.70;;
16314;SDS011;8266;52.150;4.768;2023-01-16T12:35:22;1.02;;;0.80;;
16314;SDS011;8266;52.150;4.768;2023-01-16T12:38:07;1.40;;;0.88;;
16314;SDS011;8266;52.150;4.768;2023-01-16T12:40:46;1.15;;;0.90;;
16314;SDS011;8266;52.150;4.768;2023-01-16T12:43:58;2.20;;;1.30;;
16314;SDS011;8266;52.150;4.768;2023-01-16T12:46:37;1.00;;;0.80;;
16314;SDS011;8266;52.150;4.768;2023-01-16T12:49:21;1.23;;;1.10;;
16314;SDS011;8266;52.150;4.768;2023-01-16T12:51:59;1.55;;;1.10;;
16314;SDS011;8266;52.150;4.768;2023-01-16T12:54:42;2.60;;;0.88;;
16314;SDS011;8266;52.150;4.768;2023-01-16T12:57:24;0.75;;;0.60;;
16314;SDS011;8266;52.150;4.768;2023-01-16T13:00:04;1.85;;;0.90;;
16314;SDS011;8266;52.150;4.768;2023-01-16T13:02:38;1.15;;;0.75;;
16314;SDS011;8266;52.150;4.768;2023-01-16T13:05:10;0.80;;;0.80;;
16314;SDS011;8266;52.150;4.768;2023-01-16T13:07:44;1.70;;;0.98;;
16314;SDS011;8266;52.150;4.768;2023-01-16T13:10:17;2.60;;;0.82;;
16314;SDS011;8266;52.150;4.768;2023-01-16T13:13:07;1.10;;;0.80;;
16314;SDS011;8266;52.150;4.768;2023-01-16T13:16:02;1.50;;;0.68;;
16314;SDS011;8266;52.150;4.768;2023-01-16T13:18:32;1.13;;;0.50;;
16314;SDS011;8266;52.150;4.768;2023-01-16T13:21:05;0.60;;;0.52;;
16314;SDS011;8266;52.150;4.768;2023-01-16T13:23:37;0.80;;;0.68;;
16314;SDS011;8266;52.150;4.768;2023-01-16T13:26:10;1.30;;;0.90;;
16314;SDS011;8266;52.150;4.768;2023-01-16T13:28:42;0.90;;;0.80;;
16314;SDS011;8266;52.150;4.768;2023-01-16T13:31:17;1.23;;;0.80;;
16314;SDS011;8266;52.150;4.768;2023-01-16T13:33:51;1.67;;;1.00;;
16314;SDS011;8266;52.150;4.768;2023-01-16T13:36:27;0.88;;;0.80;;
16314;SDS011;8266;52.150;4.768;2023-01-16T13:39:34;1.48;;;0.70;;
16314;SDS011;8266;52.150;4.768;2023-01-16T13:42:21;1.33;;;0.90;;
16314;SDS011;8266;52.150;4.768;2023-01-16T13:44:50;1.38;;;0.90;;
16314;SDS011;8266;52.150;4.768;2023-01-16T13:47:38;1.15;;;1.05;;
16314;SDS011;8266;52.150;4.768;2023-01-16T13:50:07;1.27;;;1.10;;
16314;SDS011;8266;52.150;4.768;2023-01-16T13:52:44;0.80;;;0.80;;
16314;SDS011;8266;52.150;4.768;2023-01-16T13:55:18;1.20;;;1.10;;
16314;SDS011;8266;52.150;4.768;2023-01-16T13:57:55;1.40;;;0.82;;
16314;SDS011;8266;52.150;4.768;2023-01-16T14:00:23;1.00;;;0.90;;
16314;SDS011;8266;52.150;4.768;2023-01-16T14:03:01;1.55;;;1.17;;
16314;SDS011;8266;52.150;4.768;2023-01-16T14:05:43;1.38;;;1.13;;
16314;SDS011;8266;52.150;4.768;2023-01-16T14:08:20;1.13;;;1.00;;
16314;SDS011;8266;52.150;4.768;2023-01-16T14:11:37;1.42;;;1.30;;
16314;SDS011;8266;52.150;4.768;2023-01-16T14:20:35;0.93;;;0.80;;
16314;SDS011;8266;52.150;4.768;2023-01-16T14:23:12;1.33;;;1.23;;
16314;SDS011;8266;52.150;4.768;2023-01-16T14:26:01;2.17;;;1.40;;
16314;SDS011;8266;52.150;4.768;2023-01-16T14:28:28;2.80;;;1.55;;
16314;SDS011;8266;52.150;4.768;2023-01-16T14:30:58;1.38;;;1.27;;
16314;SDS011;8266;52.150;4.768;2023-01-16T14:33:25;1.80;;;1.30;;
16314;SDS011;8266;52.150;4.768;2023-01-16T14:35:54;1.92;;;1.50;;
16314;SDS011;8266;52.150;4.768;2023-01-16T14:38:26;1.60;;;1.33;;
16314;SDS011;8266;52.150;4.768;2023-01-16T14:40:59;2.00;;;1.35;;
16314;SDS011;8266;52.150;4.768;2023-01-16T14:44:01;3.28;;;1.88;;
16314;SDS011;8266;52.150;4.768;2023-01-16T14:47:07;3.25;;;1.50;;
16314;SDS011;8266;52.150;4.768;2023-01-16T14:53:05;2.20;;;1.83;;
16314;SDS011;8266;52.150;4.768;2023-01-16T14:56:01;1.30;;;1.20;;
16314;SDS011;8266;52.150;4.768;2023-01-16T14:58:32;1.90;;;1.55;;
16314;SDS011;8266;52.150;4.768;2023-01-16T15:01:03;1.63;;;1.33;;
16314;SDS011;8266;52.150;4.768;2023-01-16T15:03:54;1.80;;;1.67;;
16314;SDS011;8266;52.150;4.768;2023-01-16T15:06:22;2.33;;;1.70;;
16314;SDS011;8266;52.150;4.768;2023-01-16T15:08:49;2.15;;;1.70;;
16314;SDS011;8266;52.150;4.768;2023-01-16T15:11:20;2.05;;;1.42;;
16314;SDS011;8266;52.150;4.768;2023-01-16T15:14:11;1.33;;;1.23;;
16314;SDS011;8266;52.150;4.768;2023-01-16T15:17:00;1.77;;;1.67;;
16314;SDS011;8266;52.150;4.768;2023-01-16T15:19:57;3.05;;;2.78;;
16314;SDS011;8266;52.150;4.768;2023-01-16T15:22:44;3.13;;;2.70;;
16314;SDS011;8266;52.150;4.768;2023-01-16T15:25:16;3.03;;;2.40;;
16314;SDS011;8266;52.150;4.768;2023-01-16T15:27:51;2.05;;;1.77;;
16314;SDS011;8266;52.150;4.768;2023-01-16T15:30:24;2.00;;;1.90;;
16314;SDS011;8266;52.150;4.768;2023-01-16T15:32:52;1.67;;;1.58;;
16314;SDS011;8266;52.150;4.768;2023-01-16T15:35:42;1.55;;;1.45;;
16314;SDS011;8266;52.150;4.768;2023-01-16T15:38:10;2.00;;;1.80;;
16314;SDS011;8266;52.150;4.768;2023-01-16T15:40:37;2.40;;;2.20;;
16314;SDS011;8266;52.150;4.768;2023-01-16T15:43:13;0.70;;;0.70;;
16314;SDS011;8266;52.150;4.768;2023-01-16T15:46:00;0.77;;;0.50;;
16314;SDS011;8266;52.150;4.768;2023-01-16T15:49:00;0.70;;;0.70;;
16314;SDS011;8266;52.150;4.768;2023-01-16T15:51:50;0.50;;;0.50;;
16314;SDS011;8266;52.150;4.768;2023-01-16T15:54:18;0.60;;;0.60;;
16314;SDS011;8266;52.150;4.768;2023-01-16T15:56:45;0.50;;;0.50;;
16314;SDS011;8266;52.150;4.768;2023-01-16T15:59:22;0.60;;;0.60;;